sensor_id;sensor_type;location;lat;lon;timestamp;P1;durP1;ratioP1;P2;durP2;ratioP2
27539;SDS011;15906;52.046;4.724;2023-08-17T00:01:34;4.97;;;2.20;;
27539;SDS011;15906;52.046;4.724;2023-08-17T00:03:59;6.80;;;2.30;;
27539;SDS011;15906;52.046;4.724;2023-08-17T00:06:25;4.35;;;2.00;;
27539;SDS011;15906;52.046;4.724;2023-08-17T00:08:51;7.05;;;2.35;;
27539;SDS011;15906;52.046;4.724;2023-08-17T00:11:16;4.75;;;2.30;;
27539;SDS011;15906;52.046;4.724;2023-08-17T00:13:42;3.70;;;1.80;;
27539;SDS011;15906;52.046;4.724;2023-08-17T00:16:07;2.90;;;1.83;;
27539;SDS011;15906;52.046;4.724;2023-08-17T00:18:34;4.35;;;2.00;;
27539;SDS011;15906;52.046;4.724;2023-08-17T00:20:59;5.65;;;2.10;;
27539;SDS011;15906;52.046;4.724;2023-08-17T00:23:25;3.85;;;2.10;;
27539;SDS011;15906;52.046;4.724;2023-08-17T00:25:51;4.60;;;2.70;;
27539;SDS011;15906;52.046;4.724;2023-08-17T00:28:16;4.57;;;2.10;;
27539;SDS011;15906;52.046;4.724;2023-08-17T00:30:42;3.80;;;1.90;;
27539;SDS011;15906;52.046;4.724;2023-08-17T00:33:07;4.90;;;2.03;;
27539;SDS011;15906;52.046;4.724;2023-08-17T00:35:33;4.50;;;2.00;;
27539;SDS011;15906;52.046;4.724;2023-08-17T00:37:59;5.35;;;1.95;;
27539;SDS011;15906;52.046;4.724;2023-08-17T00:40:25;7.80;;;1.95;;
27539;SDS011;15906;52.046;4.724;2023-08-17T00:42:50;3.15;;;1.73;;
27539;SDS011;15906;52.046;4.724;2023-08-17T00:45:17;4.25;;;2.20;;
27539;SDS011;15906;52.046;4.724;2023-08-17T00:47:43;5.65;;;1.92;;
27539;SDS011;15906;52.046;4.724;2023-08-17T00:50:10;8.27;;;2.00;;
27539;SDS011;15906;52.046;4.724;2023-08-17T00:52:36;3.45;;;2.00;;
27539;SDS011;15906;52.046;4.724;2023-08-17T00:55:03;5.10;;;2.20;;
27539;SDS011;15906;52.046;4.724;2023-08-17T00:57:30;3.10;;;1.92;;
27539;SDS011;15906;52.046;4.724;2023-08-17T00:59:56;4.75;;;2.15;;
27539;SDS011;15906;52.046;4.724;2023-08-17T01:02:23;5.10;;;2.03;;
27539;SDS011;15906;52.046;4.724;2023-08-17T01:04:49;3.30;;;1.60;;
27539;SDS011;15906;52.046;4.724;2023-08-17T01:07:15;4.65;;;2.22;;
27539;SDS011;15906;52.046;4.724;2023-08-17T01:09:40;3.47;;;2.10;;
27539;SDS011;15906;52.046;4.724;2023-08-17T01:20:16;9.68;;;2.00;;
27539;SDS011;15906;52.046;4.724;2023-08-17T01:22:44;5.47;;;2.17;;
27539;SDS011;15906;52.046;4.724;2023-08-17T01:25:12;5.95;;;1.70;;
27539;SDS011;15906;52.046;4.724;2023-08-17T01:27:41;5.80;;;2.10;;
27539;SDS011;15906;52.046;4.724;2023-08-17T01:30:09;3.80;;;2.20;;
27539;SDS011;15906;52.046;4.724;2023-08-17T01:32:43;4.68;;;2.08;;
27539;SDS011;15906;52.046;4.724;2023-08-17T01:37:56;5.28;;;2.25;;
27539;SDS011;15906;52.046;4.724;2023-08-17T01:40:25;5.20;;;2.33;;
27539;SDS011;15906;52.046;4.724;2023-08-17T01:42:53;4.80;;;2.00;;
27539;SDS011;15906;52.046;4.724;2023-08-17T01:45:20;4.00;;;1.85;;
27539;SDS011;15906;52.046;4.724;2023-08-17T01:47:46;4.90;;;2.08;;
27539;SDS011;15906;52.046;4.724;2023-08-17T01:50:12;7.05;;;2.20;;
27539;SDS011;15906;52.046;4.724;2023-08-17T01:52:37;4.90;;;2.03;;
27539;SDS011;15906;52.046;4.724;2023-08-17T01:55:03;3.42;;;1.80;;
27539;SDS011;15906;52.046;4.724;2023-08-17T01:57:29;4.18;;;2.00;;
27539;SDS011;15906;52.046;4.724;2023-08-17T01:59:54;5.15;;;2.53;;
27539;SDS011;15906;52.046;4.724;2023-08-17T02:02:20;4.57;;;2.22;;
27539;SDS011;15906;52.046;4.724;2023-08-17T02:04:46;5.70;;;2.45;;
27539;SDS011;15906;52.046;4.724;2023-08-17T02:07:12;6.20;;;2.55;;
27539;SDS011;15906;52.046;4.724;2023-08-17T02:09:37;5.20;;;2.75;;
27539;SDS011;15906;52.046;4.724;2023-08-17T02:12:03;6.75;;;2.42;;
27539;SDS011;15906;52.046;4.724;2023-08-17T02:14:29;4.32;;;2.17;;
27539;SDS011;15906;52.046;4.724;2023-08-17T02:16:54;7.70;;;2.80;;
27539;SDS011;15906;52.046;4.724;2023-08-17T02:19:20;5.70;;;2.60;;
27539;SDS011;15906;52.046;4.724;2023-08-17T02:21:45;4.35;;;2.38;;
27539;SDS011;15906;52.046;4.724;2023-08-17T02:24:11;7.70;;;2.20;;
27539;SDS011;15906;52.046;4.724;2023-08-17T02:26:37;2.97;;;2.40;;
27539;SDS011;15906;52.046;4.724;2023-08-17T02:29:03;6.80;;;2.50;;
27539;SDS011;15906;52.046;4.724;2023-08-17T02:31:29;4.63;;;2.88;;
27539;SDS011;15906;52.046;4.724;2023-08-17T02:33:54;7.97;;;2.45;;
27539;SDS011;15906;52.046;4.724;2023-08-17T02:36:25;4.60;;;2.22;;
27539;SDS011;15906;52.046;4.724;2023-08-17T02:38:51;4.72;;;2.08;;
27539;SDS011;15906;52.046;4.724;2023-08-17T02:41:17;4.13;;;2.22;;
27539;SDS011;15906;52.046;4.724;2023-08-17T02:43:42;9.02;;;3.33;;
27539;SDS011;15906;52.046;4.724;2023-08-17T02:46:08;6.93;;;2.92;;
27539;SDS011;15906;52.046;4.724;2023-08-17T02:48:34;5.80;;;3.05;;
27539;SDS011;15906;52.046;4.724;2023-08-17T02:51:00;4.95;;;2.70;;
27539;SDS011;15906;52.046;4.724;2023-08-17T02:53:25;5.43;;;2.50;;
27539;SDS011;15906;52.046;4.724;2023-08-17T02:55:51;5.80;;;2.65;;
27539;SDS011;15906;52.046;4.724;2023-08-17T02:58:16;4.63;;;2.60;;
27539;SDS011;15906;52.046;4.724;2023-08-17T03:00:42;8.45;;;3.25;;
27539;SDS011;15906;52.046;4.724;2023-08-17T03:03:08;6.53;;;3.65;;
27539;SDS011;15906;52.046;4.724;2023-08-17T03:05:33;6.32;;;3.03;;
27539;SDS011;15906;52.046;4.724;2023-08-17T03:07:59;4.38;;;2.97;;
27539;SDS011;15906;52.046;4.724;2023-08-17T03:10:24;6.55;;;2.70;;
27539;SDS011;15906;52.046;4.724;2023-08-17T03:12:50;9.80;;;3.13;;
27539;SDS011;15906;52.046;4.724;2023-08-17T03:15:16;10.48;;;2.92;;
27539;SDS011;15906;52.046;4.724;2023-08-17T03:17:42;10.40;;;4.05;;
27539;SDS011;15906;52.046;4.724;2023-08-17T03:20:07;7.03;;;2.78;;
27539;SDS011;15906;52.046;4.724;2023-08-17T03:22:33;5.00;;;2.78;;
27539;SDS011;15906;52.046;4.724;2023-08-17T03:24:59;6.28;;;2.63;;
27539;SDS011;15906;52.046;4.724;2023-08-17T03:27:25;8.30;;;2.78;;
27539;SDS011;15906;52.046;4.724;2023-08-17T03:29:50;6.38;;;2.63;;
27539;SDS011;15906;52.046;4.724;2023-08-17T03:32:16;8.93;;;2.55;;
27539;SDS011;15906;52.046;4.724;2023-08-17T03:34:42;4.80;;;2.70;;
27539;SDS011;15906;52.046;4.724;2023-08-17T03:37:08;5.57;;;2.30;;
27539;SDS011;15906;52.046;4.724;2023-08-17T03:39:33;6.60;;;2.88;;
27539;SDS011;15906;52.046;4.724;2023-08-17T03:41:59;10.48;;;3.05;;
27539;SDS011;15906;52.046;4.724;2023-08-17T03:44:24;9.35;;;2.80;;
27539;SDS011;15906;52.046;4.724;2023-08-17T03:46:50;5.78;;;2.22;;
27539;SDS011;15906;52.046;4.724;2023-08-17T03:49:15;5.25;;;2.55;;
27539;SDS011;15906;52.046;4.724;2023-08-17T03:51:41;6.22;;;2.25;;
27539;SDS011;15906;52.046;4.724;2023-08-17T03:54:07;6.43;;;2.75;;
27539;SDS011;15906;52.046;4.724;2023-08-17T03:56:32;6.63;;;2.13;;
27539;SDS011;15906;52.046;4.724;2023-08-17T03:58:58;8.48;;;2.92;;
27539;SDS011;15906;52.046;4.724;2023-08-17T04:01:23;5.30;;;2.50;;
27539;SDS011;15906;52.046;4.724;2023-08-17T04:03:49;4.00;;;2.60;;
27539;SDS011;15906;52.046;4.724;2023-08-17T04:06:15;5.65;;;2.75;;
27539;SDS011;15906;52.046;4.724;2023-08-17T04:08:40;4.35;;;2.17;;
27539;SDS011;15906;52.046;4.724;2023-08-17T04:11:06;8.93;;;2.55;;
27539;SDS011;15906;52.046;4.724;2023-08-17T04:13:32;5.38;;;2.17;;
27539;SDS011;15906;52.046;4.724;2023-08-17T04:15:57;6.10;;;2.55;;
27539;SDS011;15906;52.046;4.724;2023-08-17T04:18:23;6.82;;;2.25;;
27539;SDS011;15906;52.046;4.724;2023-08-17T04:20:50;6.07;;;2.00;;
27539;SDS011;15906;52.046;4.724;2023-08-17T04:23:15;3.45;;;2.15;;
27539;SDS011;15906;52.046;4.724;2023-08-17T04:25:41;6.20;;;2.90;;
27539;SDS011;15906;52.046;4.724;2023-08-17T04:28:08;6.78;;;2.10;;
27539;SDS011;15906;52.046;4.724;2023-08-17T04:30:34;4.60;;;2.35;;
27539;SDS011;15906;52.046;4.724;2023-08-17T04:32:59;4.15;;;2.13;;
27539;SDS011;15906;52.046;4.724;2023-08-17T04:35:25;6.13;;;1.92;;
27539;SDS011;15906;52.046;4.724;2023-08-17T04:37:50;5.20;;;2.17;;
27539;SDS011;15906;52.046;4.724;2023-08-17T04:40:16;5.25;;;1.90;;
27539;SDS011;15906;52.046;4.724;2023-08-17T04:42:42;6.50;;;2.00;;
27539;SDS011;15906;52.046;4.724;2023-08-17T04:45:07;5.45;;;2.22;;
27539;SDS011;15906;52.046;4.724;2023-08-17T04:47:33;9.02;;;2.60;;
27539;SDS011;15906;52.046;4.724;2023-08-17T04:49:59;8.68;;;2.05;;
27539;SDS011;15906;52.046;4.724;2023-08-17T04:52:24;5.07;;;2.00;;
27539;SDS011;15906;52.046;4.724;2023-08-17T04:54:50;9.05;;;2.00;;
27539;SDS011;15906;52.046;4.724;2023-08-17T04:57:15;6.43;;;2.15;;
27539;SDS011;15906;52.046;4.724;2023-08-17T04:59:42;7.05;;;2.53;;
27539;SDS011;15906;52.046;4.724;2023-08-17T05:02:08;4.93;;;1.83;;
27539;SDS011;15906;52.046;4.724;2023-08-17T05:04:34;4.78;;;2.15;;
27539;SDS011;15906;52.046;4.724;2023-08-17T05:07:00;7.90;;;2.30;;
27539;SDS011;15906;52.046;4.724;2023-08-17T05:09:26;4.53;;;1.90;;
27539;SDS011;15906;52.046;4.724;2023-08-17T05:11:52;4.32;;;2.00;;
27539;SDS011;15906;52.046;4.724;2023-08-17T05:14:17;6.82;;;1.90;;
27539;SDS011;15906;52.046;4.724;2023-08-17T05:16:43;3.50;;;1.90;;
27539;SDS011;15906;52.046;4.724;2023-08-17T05:19:08;5.03;;;1.70;;
27539;SDS011;15906;52.046;4.724;2023-08-17T05:21:34;6.35;;;1.70;;
27539;SDS011;15906;52.046;4.724;2023-08-17T05:24:00;3.80;;;1.83;;
27539;SDS011;15906;52.046;4.724;2023-08-17T05:26:26;5.65;;;2.00;;
27539;SDS011;15906;52.046;4.724;2023-08-17T05:28:51;4.53;;;1.58;;
27539;SDS011;15906;52.046;4.724;2023-08-17T05:31:17;4.55;;;1.63;;
27539;SDS011;15906;52.046;4.724;2023-08-17T05:33:43;3.72;;;1.67;;
27539;SDS011;15906;52.046;4.724;2023-08-17T05:36:08;3.08;;;1.77;;
27539;SDS011;15906;52.046;4.724;2023-08-17T05:38:34;7.10;;;2.13;;
27539;SDS011;15906;52.046;4.724;2023-08-17T05:40:59;4.57;;;1.92;;
27539;SDS011;15906;52.046;4.724;2023-08-17T05:43:26;4.13;;;1.80;;
27539;SDS011;15906;52.046;4.724;2023-08-17T05:45:52;5.13;;;1.95;;
27539;SDS011;15906;52.046;4.724;2023-08-17T05:48:18;3.63;;;1.50;;
27539;SDS011;15906;52.046;4.724;2023-08-17T05:50:45;5.95;;;2.40;;
27539;SDS011;15906;52.046;4.724;2023-08-17T05:53:12;7.03;;;2.25;;
27539;SDS011;15906;52.046;4.724;2023-08-17T05:55:37;5.90;;;2.40;;
27539;SDS011;15906;52.046;4.724;2023-08-17T05:58:03;3.22;;;2.28;;
27539;SDS011;15906;52.046;4.724;2023-08-17T06:00:31;5.38;;;1.83;;
27539;SDS011;15906;52.046;4.724;2023-08-17T06:02:57;7.32;;;1.90;;
27539;SDS011;15906;52.046;4.724;2023-08-17T06:05:31;4.35;;;2.03;;
27539;SDS011;15906;52.046;4.724;2023-08-17T06:07:57;5.88;;;2.78;;
27539;SDS011;15906;52.046;4.724;2023-08-17T06:10:23;6.53;;;2.70;;
27539;SDS011;15906;52.046;4.724;2023-08-17T06:12:52;6.25;;;2.85;;
27539;SDS011;15906;52.046;4.724;2023-08-17T06:15:19;6.88;;;2.58;;
27539;SDS011;15906;52.046;4.724;2023-08-17T06:17:44;4.88;;;2.15;;
27539;SDS011;15906;52.046;4.724;2023-08-17T06:20:10;7.13;;;2.30;;
27539;SDS011;15906;52.046;4.724;2023-08-17T06:22:37;8.68;;;2.20;;
27539;SDS011;15906;52.046;4.724;2023-08-17T06:25:02;4.97;;;2.10;;
27539;SDS011;15906;52.046;4.724;2023-08-17T06:27:30;4.13;;;2.22;;
27539;SDS011;15906;52.046;4.724;2023-08-17T06:29:55;10.52;;;2.45;;
27539;SDS011;15906;52.046;4.724;2023-08-17T06:32:21;4.78;;;2.00;;
27539;SDS011;15906;52.046;4.724;2023-08-17T06:34:46;9.65;;;3.50;;
27539;SDS011;15906;52.046;4.724;2023-08-17T06:37:12;5.75;;;2.40;;
27539;SDS011;15906;52.046;4.724;2023-08-17T06:39:37;6.07;;;2.25;;
27539;SDS011;15906;52.046;4.724;2023-08-17T06:42:03;5.35;;;2.22;;
27539;SDS011;15906;52.046;4.724;2023-08-17T06:44:29;11.52;;;2.92;;
27539;SDS011;15906;52.046;4.724;2023-08-17T06:46:55;7.10;;;2.40;;
27539;SDS011;15906;52.046;4.724;2023-08-17T06:49:21;8.70;;;2.50;;
27539;SDS011;15906;52.046;4.724;2023-08-17T06:51:47;5.20;;;2.38;;
27539;SDS011;15906;52.046;4.724;2023-08-17T06:54:13;5.82;;;2.05;;
27539;SDS011;15906;52.046;4.724;2023-08-17T06:56:38;7.60;;;2.78;;
27539;SDS011;15906;52.046;4.724;2023-08-17T06:59:04;6.97;;;2.50;;
27539;SDS011;15906;52.046;4.724;2023-08-17T07:01:30;6.80;;;2.50;;
27539;SDS011;15906;52.046;4.724;2023-08-17T07:03:55;4.55;;;2.40;;
27539;SDS011;15906;52.046;4.724;2023-08-17T07:06:22;9.35;;;2.53;;
27539;SDS011;15906;52.046;4.724;2023-08-17T07:08:48;7.72;;;2.40;;
27539;SDS011;15906;52.046;4.724;2023-08-17T07:11:13;6.57;;;2.50;;
27539;SDS011;15906;52.046;4.724;2023-08-17T07:13:39;6.78;;;2.50;;
27539;SDS011;15906;52.046;4.724;2023-08-17T07:16:04;5.28;;;2.15;;
27539;SDS011;15906;52.046;4.724;2023-08-17T07:18:30;5.38;;;2.40;;
27539;SDS011;15906;52.046;4.724;2023-08-17T07:20:55;7.95;;;2.30;;
27539;SDS011;15906;52.046;4.724;2023-08-17T07:23:21;8.98;;;2.05;;
27539;SDS011;15906;52.046;4.724;2023-08-17T07:25:46;5.40;;;1.80;;
27539;SDS011;15906;52.046;4.724;2023-08-17T07:28:13;5.97;;;2.30;;
27539;SDS011;15906;52.046;4.724;2023-08-17T07:30:40;8.20;;;2.78;;
27539;SDS011;15906;52.046;4.724;2023-08-17T07:33:06;5.22;;;2.63;;
27539;SDS011;15906;52.046;4.724;2023-08-17T07:35:31;4.55;;;2.30;;
27539;SDS011;15906;52.046;4.724;2023-08-17T07:37:57;4.15;;;1.85;;
27539;SDS011;15906;52.046;4.724;2023-08-17T07:40:22;4.65;;;2.50;;
27539;SDS011;15906;52.046;4.724;2023-08-17T07:42:48;9.18;;;2.30;;
27539;SDS011;15906;52.046;4.724;2023-08-17T07:45:14;4.68;;;2.35;;
27539;SDS011;15906;52.046;4.724;2023-08-17T07:47:40;5.95;;;1.90;;
27539;SDS011;15906;52.046;4.724;2023-08-17T07:50:06;7.32;;;2.35;;
27539;SDS011;15906;52.046;4.724;2023-08-17T07:52:32;5.97;;;1.98;;
27539;SDS011;15906;52.046;4.724;2023-08-17T07:54:58;4.88;;;1.95;;
27539;SDS011;15906;52.046;4.724;2023-08-17T07:57:23;4.75;;;2.30;;
27539;SDS011;15906;52.046;4.724;2023-08-17T07:59:49;6.72;;;2.58;;
27539;SDS011;15906;52.046;4.724;2023-08-17T08:02:16;6.78;;;2.00;;
27539;SDS011;15906;52.046;4.724;2023-08-17T08:04:42;7.00;;;1.80;;
27539;SDS011;15906;52.046;4.724;2023-08-17T08:07:08;5.97;;;2.20;;
27539;SDS011;15906;52.046;4.724;2023-08-17T08:09:35;5.60;;;1.80;;
27539;SDS011;15906;52.046;4.724;2023-08-17T08:12:03;6.15;;;1.95;;
27539;SDS011;15906;52.046;4.724;2023-08-17T08:14:30;6.47;;;2.00;;
27539;SDS011;15906;52.046;4.724;2023-08-17T08:16:55;7.28;;;2.20;;
27539;SDS011;15906;52.046;4.724;2023-08-17T08:19:21;9.80;;;2.13;;
27539;SDS011;15906;52.046;4.724;2023-08-17T08:21:47;5.45;;;2.00;;
27539;SDS011;15906;52.046;4.724;2023-08-17T08:24:15;4.85;;;1.80;;
27539;SDS011;15906;52.046;4.724;2023-08-17T08:26:41;5.80;;;3.05;;
27539;SDS011;15906;52.046;4.724;2023-08-17T08:29:06;4.60;;;2.05;;
27539;SDS011;15906;52.046;4.724;2023-08-17T08:31:32;5.85;;;2.13;;
27539;SDS011;15906;52.046;4.724;2023-08-17T08:33:58;6.05;;;2.20;;
27539;SDS011;15906;52.046;4.724;2023-08-17T08:36:24;4.80;;;2.53;;
27539;SDS011;15906;52.046;4.724;2023-08-17T08:38:50;4.25;;;1.70;;
27539;SDS011;15906;52.046;4.724;2023-08-17T08:41:16;4.78;;;1.92;;
27539;SDS011;15906;52.046;4.724;2023-08-17T08:43:42;4.22;;;1.92;;
27539;SDS011;15906;52.046;4.724;2023-08-17T08:46:07;5.05;;;1.83;;
27539;SDS011;15906;52.046;4.724;2023-08-17T08:48:34;4.28;;;1.90;;
27539;SDS011;15906;52.046;4.724;2023-08-17T08:51:02;5.72;;;2.20;;
27539;SDS011;15906;52.046;4.724;2023-08-17T08:53:43;6.75;;;2.10;;
27539;SDS011;15906;52.046;4.724;2023-08-17T08:56:13;7.22;;;2.53;;
27539;SDS011;15906;52.046;4.724;2023-08-17T08:58:44;5.43;;;2.17;;
27539;SDS011;15906;52.046;4.724;2023-08-17T09:01:11;3.95;;;1.90;;
27539;SDS011;15906;52.046;4.724;2023-08-17T09:03:37;2.33;;;1.55;;
27539;SDS011;15906;52.046;4.724;2023-08-17T09:06:04;4.68;;;1.90;;
27539;SDS011;15906;52.046;4.724;2023-08-17T09:08:30;9.05;;;2.00;;
27539;SDS011;15906;52.046;4.724;2023-08-17T09:10:56;3.80;;;2.00;;
27539;SDS011;15906;52.046;4.724;2023-08-17T09:13:21;3.42;;;1.80;;
27539;SDS011;15906;52.046;4.724;2023-08-17T09:15:47;5.03;;;2.10;;
27539;SDS011;15906;52.046;4.724;2023-08-17T09:18:12;4.40;;;1.77;;
27539;SDS011;15906;52.046;4.724;2023-08-17T09:20:39;3.33;;;1.92;;
27539;SDS011;15906;52.046;4.724;2023-08-17T09:23:12;5.50;;;1.95;;
27539;SDS011;15906;52.046;4.724;2023-08-17T09:25:40;4.15;;;2.00;;
27539;SDS011;15906;52.046;4.724;2023-08-17T09:28:08;6.78;;;1.77;;
27539;SDS011;15906;52.046;4.724;2023-08-17T09:30:53;5.68;;;2.38;;
27539;SDS011;15906;52.046;4.724;2023-08-17T09:33:26;3.83;;;2.13;;
27539;SDS011;15906;52.046;4.724;2023-08-17T09:35:54;6.47;;;2.60;;
27539;SDS011;15906;52.046;4.724;2023-08-17T09:38:21;8.32;;;2.33;;
27539;SDS011;15906;52.046;4.724;2023-08-17T09:40:47;3.65;;;2.42;;
27539;SDS011;15906;52.046;4.724;2023-08-17T09:43:14;5.90;;;2.55;;
27539;SDS011;15906;52.046;4.724;2023-08-17T09:45:40;3.30;;;2.17;;
27539;SDS011;15906;52.046;4.724;2023-08-17T09:48:07;4.53;;;2.30;;
27539;SDS011;15906;52.046;4.724;2023-08-17T09:50:33;4.55;;;2.10;;
27539;SDS011;15906;52.046;4.724;2023-08-17T09:53:00;5.85;;;2.50;;
27539;SDS011;15906;52.046;4.724;2023-08-17T09:55:27;5.65;;;2.40;;
27539;SDS011;15906;52.046;4.724;2023-08-17T09:57:54;5.03;;;2.75;;
27539;SDS011;15906;52.046;4.724;2023-08-17T10:00:21;5.82;;;2.17;;
27539;SDS011;15906;52.046;4.724;2023-08-17T10:02:50;6.18;;;2.17;;
27539;SDS011;15906;52.046;4.724;2023-08-17T10:05:18;9.20;;;2.65;;
27539;SDS011;15906;52.046;4.724;2023-08-17T10:07:57;5.55;;;2.38;;
27539;SDS011;15906;52.046;4.724;2023-08-17T10:10:25;8.98;;;2.65;;
27539;SDS011;15906;52.046;4.724;2023-08-17T10:12:59;6.95;;;2.10;;
27539;SDS011;15906;52.046;4.724;2023-08-17T10:15:33;7.30;;;2.92;;
27539;SDS011;15906;52.046;4.724;2023-08-17T10:18:17;4.22;;;2.08;;
27539;SDS011;15906;52.046;4.724;2023-08-17T10:20:58;5.88;;;2.50;;
27539;SDS011;15906;52.046;4.724;2023-08-17T10:23:30;4.97;;;2.15;;
27539;SDS011;15906;52.046;4.724;2023-08-17T10:25:57;4.82;;;2.63;;
27539;SDS011;15906;52.046;4.724;2023-08-17T10:28:25;6.88;;;2.50;;
27539;SDS011;15906;52.046;4.724;2023-08-17T10:30:51;5.80;;;2.25;;
27539;SDS011;15906;52.046;4.724;2023-08-17T10:33:17;6.85;;;2.88;;
27539;SDS011;15906;52.046;4.724;2023-08-17T10:35:43;6.35;;;2.70;;
27539;SDS011;15906;52.046;4.724;2023-08-17T10:38:10;4.90;;;2.33;;
27539;SDS011;15906;52.046;4.724;2023-08-17T10:40:37;5.78;;;2.58;;
27539;SDS011;15906;52.046;4.724;2023-08-17T10:43:07;6.47;;;2.30;;
27539;SDS011;15906;52.046;4.724;2023-08-17T10:45:33;6.93;;;2.75;;
27539;SDS011;15906;52.046;4.724;2023-08-17T10:50:33;4.45;;;2.63;;
27539;SDS011;15906;52.046;4.724;2023-08-17T10:53:12;8.23;;;2.25;;
27539;SDS011;15906;52.046;4.724;2023-08-17T10:55:41;8.65;;;2.17;;
27539;SDS011;15906;52.046;4.724;2023-08-17T10:58:10;4.35;;;2.08;;
27539;SDS011;15906;52.046;4.724;2023-08-17T11:00:39;6.10;;;2.20;;
27539;SDS011;15906;52.046;4.724;2023-08-17T11:03:07;7.57;;;2.50;;
27539;SDS011;15906;52.046;4.724;2023-08-17T11:08:04;5.43;;;2.20;;
27539;SDS011;15906;52.046;4.724;2023-08-17T11:10:38;4.80;;;2.20;;
27539;SDS011;15906;52.046;4.724;2023-08-17T11:13:04;5.05;;;2.47;;
27539;SDS011;15906;52.046;4.724;2023-08-17T11:15:42;5.63;;;2.80;;
27539;SDS011;15906;52.046;4.724;2023-08-17T11:18:09;6.75;;;2.10;;
27539;SDS011;15906;52.046;4.724;2023-08-17T11:20:36;4.00;;;2.72;;
27539;SDS011;15906;52.046;4.724;2023-08-17T11:23:03;10.82;;;2.85;;
27539;SDS011;15906;52.046;4.724;2023-08-17T11:25:31;6.28;;;2.30;;
27539;SDS011;15906;52.046;4.724;2023-08-17T11:27:57;5.60;;;2.20;;
27539;SDS011;15906;52.046;4.724;2023-08-17T11:30:24;5.35;;;1.90;;
27539;SDS011;15906;52.046;4.724;2023-08-17T11:32:50;8.02;;;2.50;;
27539;SDS011;15906;52.046;4.724;2023-08-17T11:35:17;3.42;;;2.03;;
27539;SDS011;15906;52.046;4.724;2023-08-17T11:37:43;6.75;;;2.53;;
27539;SDS011;15906;52.046;4.724;2023-08-17T11:40:12;4.80;;;2.42;;
27539;SDS011;15906;52.046;4.724;2023-08-17T11:42:38;4.50;;;2.10;;
27539;SDS011;15906;52.046;4.724;2023-08-17T11:45:04;3.67;;;2.38;;
27539;SDS011;15906;52.046;4.724;2023-08-17T11:47:31;7.45;;;2.58;;
27539;SDS011;15906;52.046;4.724;2023-08-17T11:50:04;4.18;;;2.53;;
27539;SDS011;15906;52.046;4.724;2023-08-17T11:52:30;5.93;;;2.92;;
27539;SDS011;15906;52.046;4.724;2023-08-17T11:54:57;7.00;;;3.28;;
27539;SDS011;15906;52.046;4.724;2023-08-17T11:57:24;8.48;;;2.88;;
27539;SDS011;15906;52.046;4.724;2023-08-17T11:59:53;4.78;;;3.03;;
27539;SDS011;15906;52.046;4.724;2023-08-17T12:02:23;8.32;;;3.40;;
27539;SDS011;15906;52.046;4.724;2023-08-17T12:04:49;8.30;;;3.08;;
27539;SDS011;15906;52.046;4.724;2023-08-17T12:07:16;5.47;;;2.88;;
27539;SDS011;15906;52.046;4.724;2023-08-17T12:09:45;5.72;;;3.00;;
27539;SDS011;15906;52.046;4.724;2023-08-17T12:12:11;6.03;;;3.08;;
27539;SDS011;15906;52.046;4.724;2023-08-17T12:14:41;6.38;;;2.97;;
27539;SDS011;15906;52.046;4.724;2023-08-17T12:17:10;7.57;;;3.15;;
27539;SDS011;15906;52.046;4.724;2023-08-17T12:19:54;5.05;;;3.00;;
27539;SDS011;15906;52.046;4.724;2023-08-17T12:22:22;6.70;;;3.17;;
27539;SDS011;15906;52.046;4.724;2023-08-17T12:24:49;5.63;;;3.30;;
27539;SDS011;15906;52.046;4.724;2023-08-17T12:27:14;7.47;;;3.40;;
27539;SDS011;15906;52.046;4.724;2023-08-17T12:29:49;7.35;;;3.65;;
27539;SDS011;15906;52.046;4.724;2023-08-17T12:32:16;4.22;;;3.20;;
27539;SDS011;15906;52.046;4.724;2023-08-17T12:34:43;6.82;;;4.35;;
27539;SDS011;15906;52.046;4.724;2023-08-17T12:37:09;5.50;;;3.22;;
27539;SDS011;15906;52.046;4.724;2023-08-17T12:39:36;8.23;;;4.28;;
27539;SDS011;15906;52.046;4.724;2023-08-17T12:42:02;6.32;;;3.15;;
27539;SDS011;15906;52.046;4.724;2023-08-17T12:44:31;6.30;;;3.40;;
27539;SDS011;15906;52.046;4.724;2023-08-17T12:46:56;7.57;;;3.45;;
27539;SDS011;15906;52.046;4.724;2023-08-17T12:49:25;4.43;;;3.40;;
27539;SDS011;15906;52.046;4.724;2023-08-17T12:51:51;4.28;;;3.40;;
27539;SDS011;15906;52.046;4.724;2023-08-17T12:54:17;5.03;;;2.70;;
27539;SDS011;15906;52.046;4.724;2023-08-17T12:56:43;5.95;;;3.05;;
27539;SDS011;15906;52.046;4.724;2023-08-17T12:59:09;5.28;;;3.22;;
27539;SDS011;15906;52.046;4.724;2023-08-17T13:01:35;6.70;;;3.72;;
27539;SDS011;15906;52.046;4.724;2023-08-17T13:04:01;6.80;;;3.65;;
27539;SDS011;15906;52.046;4.724;2023-08-17T13:06:27;6.90;;;3.35;;
27539;SDS011;15906;52.046;4.724;2023-08-17T13:08:52;5.43;;;3.70;;
27539;SDS011;15906;52.046;4.724;2023-08-17T13:11:18;24.40;;;4.88;;
27539;SDS011;15906;52.046;4.724;2023-08-17T13:13:44;14.25;;;4.43;;
27539;SDS011;15906;52.046;4.724;2023-08-17T13:16:09;12.35;;;4.88;;
27539;SDS011;15906;52.046;4.724;2023-08-17T13:18:36;20.60;;;5.70;;
27539;SDS011;15906;52.046;4.724;2023-08-17T13:21:01;6.57;;;3.65;;
27539;SDS011;15906;52.046;4.724;2023-08-17T13:23:27;14.30;;;4.70;;
27539;SDS011;15906;52.046;4.724;2023-08-17T13:25:53;17.52;;;4.93;;
27539;SDS011;15906;52.046;4.724;2023-08-17T13:28:18;13.27;;;4.10;;
27539;SDS011;15906;52.046;4.724;2023-08-17T13:30:44;15.82;;;4.32;;
27539;SDS011;15906;52.046;4.724;2023-08-17T13:33:10;5.47;;;3.55;;
27539;SDS011;15906;52.046;4.724;2023-08-17T13:35:36;6.40;;;3.25;;
27539;SDS011;15906;52.046;4.724;2023-08-17T13:38:01;6.55;;;3.42;;
27539;SDS011;15906;52.046;4.724;2023-08-17T13:40:33;7.15;;;3.40;;
27539;SDS011;15906;52.046;4.724;2023-08-17T13:42:58;12.15;;;4.15;;
27539;SDS011;15906;52.046;4.724;2023-08-17T13:45:25;6.55;;;3.95;;
27539;SDS011;15906;52.046;4.724;2023-08-17T13:47:51;5.82;;;3.47;;
27539;SDS011;15906;52.046;4.724;2023-08-17T13:50:16;12.15;;;3.95;;
27539;SDS011;15906;52.046;4.724;2023-08-17T13:52:43;6.10;;;4.10;;
27539;SDS011;15906;52.046;4.724;2023-08-17T13:55:09;8.38;;;4.10;;
27539;SDS011;15906;52.046;4.724;2023-08-17T13:57:35;4.90;;;3.70;;
27539;SDS011;15906;52.046;4.724;2023-08-17T14:00:00;7.05;;;3.92;;
27539;SDS011;15906;52.046;4.724;2023-08-17T14:02:26;6.25;;;3.90;;
27539;SDS011;15906;52.046;4.724;2023-08-17T14:04:52;7.75;;;4.00;;
27539;SDS011;15906;52.046;4.724;2023-08-17T14:07:17;10.73;;;4.65;;
27539;SDS011;15906;52.046;4.724;2023-08-17T14:09:43;7.70;;;4.70;;
27539;SDS011;15906;52.046;4.724;2023-08-17T14:12:08;10.05;;;4.30;;
27539;SDS011;15906;52.046;4.724;2023-08-17T14:14:34;6.80;;;4.32;;
27539;SDS011;15906;52.046;4.724;2023-08-17T14:17:00;6.32;;;4.50;;
27539;SDS011;15906;52.046;4.724;2023-08-17T14:19:27;10.68;;;4.30;;
27539;SDS011;15906;52.046;4.724;2023-08-17T14:21:53;7.80;;;4.53;;
27539;SDS011;15906;52.046;4.724;2023-08-17T14:24:18;8.50;;;4.35;;
27539;SDS011;15906;52.046;4.724;2023-08-17T14:26:44;9.63;;;5.07;;
27539;SDS011;15906;52.046;4.724;2023-08-17T14:29:10;7.88;;;4.72;;
27539;SDS011;15906;52.046;4.724;2023-08-17T14:31:35;10.75;;;5.47;;
27539;SDS011;15906;52.046;4.724;2023-08-17T14:34:01;10.15;;;5.70;;
27539;SDS011;15906;52.046;4.724;2023-08-17T14:36:26;9.88;;;4.55;;
27539;SDS011;15906;52.046;4.724;2023-08-17T14:38:52;11.05;;;5.93;;
27539;SDS011;15906;52.046;4.724;2023-08-17T14:41:17;7.32;;;4.70;;
27539;SDS011;15906;52.046;4.724;2023-08-17T14:43:43;10.55;;;5.30;;
27539;SDS011;15906;52.046;4.724;2023-08-17T14:46:08;6.63;;;4.57;;
27539;SDS011;15906;52.046;4.724;2023-08-17T14:48:34;6.10;;;4.95;;
27539;SDS011;15906;52.046;4.724;2023-08-17T14:51:00;7.05;;;4.53;;
27539;SDS011;15906;52.046;4.724;2023-08-17T14:53:25;7.18;;;4.60;;
27539;SDS011;15906;52.046;4.724;2023-08-17T14:55:51;9.48;;;5.55;;
27539;SDS011;15906;52.046;4.724;2023-08-17T14:58:16;9.10;;;5.03;;
27539;SDS011;15906;52.046;4.724;2023-08-17T15:00:43;7.28;;;5.30;;